createdAt,value
2023-04-11T00:00:54.019Z,0.5581
2023-04-11T00:01:55.684Z,0.5570
2023-04-11T00:02:57.621Z,0.5546
2023-04-11T00:03:59.146Z,0.5551
2023-04-11T00:05:00.739Z,0.5551
2023-04-11T00:06:02.279Z,0.5549
2023-04-11T00:07:03.902Z,0.5553
2023-04-11T00:08:05.642Z,0.5542
2023-04-11T00:09:07.216Z,0.5539
2023-04-11T00:10:08.871Z,0.5544
2023-04-11T00:11:10.649Z,0.5556
2023-04-11T00:12:12.180Z,0.5555
2023-04-11T00:13:13.935Z,0.5547
2023-04-11T00:14:16.097Z,0.5547
2023-04-11T00:15:17.141Z,0.5545
2023-04-11T00:16:18.851Z,0.5539
2023-04-11T00:17:20.471Z,0.5700
2023-04-11T00:18:22.165Z,0.5810
2023-04-11T00:19:23.770Z,0.5747
2023-04-11T00:20:25.449Z,0.5763
2023-04-11T00:21:27.126Z,0.5756
2023-04-11T00:22:28.744Z,0.5750
2023-04-11T00:23:31.292Z,0.5781
2023-04-11T00:24:32.073Z,0.5807
2023-04-11T00:25:33.796Z,0.5789
2023-04-11T00:26:35.370Z,0.5752
2023-04-11T00:27:37.019Z,0.5748
2023-04-11T00:28:38.766Z,0.5755
2023-04-11T00:29:40.417Z,0.5731
2023-04-11T00:30:42.031Z,0.5715
2023-04-11T00:31:43.742Z,0.5698
2023-04-11T00:32:45.366Z,0.5695
2023-04-11T00:33:47.058Z,0.5697
2023-04-11T00:34:48.714Z,0.5699
2023-04-11T00:35:50.364Z,0.5651
2023-04-11T00:36:52.034Z,0.5634
2023-04-11T00:37:53.576Z,0.5642
2023-04-11T00:38:56.001Z,0.5639
2023-04-11T00:39:57.013Z,0.5620
2023-04-11T00:40:58.625Z,0.5608
2023-04-11T00:42:00.321Z,0.5565
2023-04-11T00:43:02.045Z,0.5561
2023-04-11T00:44:03.638Z,0.5563
2023-04-11T00:45:05.264Z,0.5567
2023-04-11T00:46:07.030Z,0.5580
2023-04-11T00:47:08.675Z,0.5533
2023-04-11T00:48:10.227Z,0.5561
2023-04-11T00:49:11.904Z,0.5493
2023-04-11T00:50:13.558Z,0.5559
2023-04-11T00:51:15.291Z,0.5548
2023-04-11T00:52:16.857Z,0.5575
2023-04-11T00:53:18.548Z,0.5581
2023-04-11T00:54:20.213Z,0.5545
2023-04-11T00:55:21.800Z,0.5544
2023-04-11T00:56:23.432Z,0.5542
2023-04-11T00:57:25.155Z,0.5546
2023-04-11T00:58:26.790Z,0.5525
2023-04-11T00:59:28.395Z,0.5513
2023-04-11T01:00:30.176Z,0.5485
2023-04-11T01:01:32.801Z,0.5464
2023-04-11T01:02:33.446Z,0.5458
2023-04-11T01:03:35.160Z,0.5441
2023-04-11T01:04:36.770Z,0.5434
2023-04-11T01:05:38.401Z,0.5437
2023-04-11T01:06:40.032Z,0.5421
2023-04-11T01:07:41.678Z,0.5422
2023-04-11T01:08:43.304Z,0.5425
2023-04-11T01:09:45.006Z,0.5438
2023-04-11T01:10:46.634Z,0.5443
2023-04-11T01:11:48.266Z,0.5442
2023-04-11T01:12:49.906Z,0.5448
2023-04-11T01:13:51.592Z,0.5451
2023-04-11T01:14:53.267Z,0.5466
2023-04-11T01:15:54.927Z,0.5471
2023-04-11T01:16:56.699Z,0.5467
2023-04-11T01:17:58.258Z,0.5450
2023-04-11T01:18:59.901Z,0.5433
2023-04-11T01:20:01.766Z,0.5445
2023-04-11T01:21:03.177Z,0.5461
2023-04-11T01:22:04.755Z,0.5447
2023-04-11T01:23:05.306Z,0.5438
2023-04-11T01:24:08.139Z,0.5413
2023-04-11T01:25:10.247Z,0.5409
2023-04-11T01:26:11.518Z,0.5460
2023-04-11T01:27:13.170Z,0.5554
2023-04-11T01:28:14.891Z,0.5540
2023-04-11T01:29:16.409Z,0.5584
2023-04-11T01:30:18.237Z,0.5636
2023-04-11T01:31:19.728Z,0.5711
2023-04-11T01:32:21.436Z,0.5691
2023-04-11T01:33:23.063Z,0.5635
2023-04-11T01:34:24.755Z,0.5632
2023-04-11T01:35:27.212Z,0.5643
2023-04-11T01:36:28.023Z,0.5615
2023-04-11T01:37:29.590Z,0.5622
2023-04-11T01:38:31.290Z,0.5628
2023-04-11T01:39:33.011Z,0.5613
2023-04-11T01:40:34.649Z,0.5611
2023-04-11T01:41:36.251Z,0.5608
2023-04-11T01:42:38.001Z,0.5589
2023-04-11T01:43:39.529Z,0.5584
2023-04-11T01:44:41.200Z,0.5573
2023-04-11T01:45:42.881Z,0.5573
2023-04-11T01:46:44.561Z,0.5573
2023-04-11T01:47:47.046Z,0.5563
2023-04-11T01:48:47.945Z,0.5568
2023-04-11T01:49:49.485Z,0.5564
2023-04-11T01:50:51.152Z,0.5568
2023-04-11T01:51:52.795Z,0.5565
2023-04-11T01:52:54.524Z,0.5570
2023-04-11T01:53:56.123Z,0.5555
2023-04-11T01:54:58.291Z,0.5555
2023-04-11T01:55:59.416Z,0.5551
2023-04-11T01:57:01.016Z,0.5544
2023-04-11T01:58:02.737Z,0.5556
2023-04-11T01:59:04.393Z,0.5552
2023-04-11T02:00:06.706Z,0.5539
2023-04-11T02:01:07.859Z,0.5517
2023-04-11T02:02:09.471Z,0.5525
2023-04-11T02:03:11.121Z,0.5523
2023-04-11T02:04:12.825Z,0.5524
2023-04-11T02:05:14.344Z,0.5587
2023-04-11T02:06:16.598Z,0.5576
2023-04-11T02:07:17.658Z,0.5582
2023-04-11T02:08:19.218Z,0.5608
2023-04-11T02:09:20.892Z,0.5623
2023-04-11T02:10:22.533Z,0.5613
2023-04-11T02:11:24.322Z,0.5622
2023-04-11T02:12:25.870Z,0.5655
2023-04-11T02:13:27.416Z,0.5656
2023-04-11T02:14:29.133Z,0.5635
2023-04-11T02:15:30.934Z,0.5622
2023-04-11T02:16:32.536Z,0.5613
2023-04-11T02:17:34.226Z,0.5607
2023-04-11T02:18:35.728Z,0.5568
2023-04-11T02:19:37.457Z,0.5556
2023-04-11T02:20:39.140Z,0.5555
2023-04-11T02:21:40.790Z,0.5531
2023-04-11T02:22:42.458Z,0.5501
2023-04-11T02:23:44.147Z,0.5495
2023-04-11T02:24:45.741Z,0.5496
2023-04-11T02:25:48.224Z,0.5479
2023-04-11T02:26:49.148Z,0.5464
2023-04-11T02:27:50.803Z,0.5456
2023-04-11T02:28:52.462Z,0.5458
2023-04-11T02:29:54.031Z,0.5450
2023-04-11T02:30:55.732Z,0.5436
2023-04-11T02:31:57.374Z,0.5436
2023-04-11T02:32:59.028Z,0.5418
2023-04-11T02:34:00.635Z,0.5420
2023-04-11T02:35:02.320Z,0.5410
2023-04-11T02:36:04.110Z,0.5412
2023-04-11T02:37:05.747Z,0.5414
2023-04-11T02:38:07.189Z,0.5473
2023-04-11T02:39:08.912Z,0.5607
2023-04-11T02:40:10.495Z,0.5599
2023-04-11T02:41:12.190Z,0.5619
2023-04-11T02:42:14.583Z,0.5629
2023-04-11T02:43:15.601Z,0.5640
2023-04-11T02:44:17.207Z,0.5651
2023-04-11T02:45:18.881Z,0.5604
2023-04-11T02:46:20.443Z,0.5579
2023-04-11T02:47:22.362Z,0.5592
2023-04-11T02:48:23.861Z,0.5588
2023-04-11T02:49:25.428Z,0.5569
2023-04-11T02:50:27.124Z,0.5551
2023-04-11T02:51:28.816Z,0.5543
2023-04-11T02:52:30.444Z,0.5522
2023-04-11T02:53:32.075Z,0.5512
2023-04-11T02:54:33.806Z,0.5519
2023-04-11T02:55:35.422Z,0.5515
2023-04-11T02:56:37.019Z,0.5506
2023-04-11T02:57:38.648Z,0.5490
2023-04-11T02:58:40.324Z,0.5476
2023-04-11T02:59:41.942Z,0.5464
2023-04-11T03:00:43.644Z,0.5461
2023-04-11T03:01:45.351Z,0.5464
2023-04-11T03:02:46.933Z,0.5457
2023-04-11T03:03:48.595Z,0.5456
2023-04-11T03:04:50.207Z,0.5449
2023-04-11T03:05:51.785Z,0.5472
2023-04-11T03:06:53.438Z,0.5496
2023-04-11T03:07:55.237Z,0.5520
2023-04-11T03:08:57.489Z,0.5528
2023-04-11T03:09:58.526Z,0.5518
2023-04-11T03:11:00.082Z,0.5504
2023-04-11T03:12:01.726Z,0.5490
2023-04-11T03:13:04.312Z,0.5491
2023-04-11T03:14:05.070Z,0.5483
2023-04-11T03:15:06.738Z,0.5470
2023-04-11T03:16:08.435Z,0.5467
2023-04-11T03:17:09.986Z,0.5460
2023-04-11T03:18:11.698Z,0.5463
2023-04-11T03:19:13.423Z,0.5465
2023-04-11T03:20:14.993Z,0.5461
2023-04-11T03:21:16.620Z,0.5447
2023-04-11T03:22:18.256Z,0.5435
2023-04-11T03:23:19.963Z,0.5424
2023-04-11T03:24:21.591Z,0.5410
2023-04-11T03:25:23.335Z,0.5360
2023-04-11T03:26:24.942Z,0.5348
2023-04-11T03:27:26.547Z,0.5375
2023-04-11T03:28:29.236Z,0.5363
2023-04-11T03:29:29.905Z,0.5345
2023-04-11T03:30:31.512Z,0.5338
2023-04-11T03:31:33.195Z,0.5330
2023-04-11T03:32:34.848Z,0.5321
2023-04-11T03:33:37.387Z,0.5313
2023-04-11T03:34:38.198Z,0.5316
2023-04-11T03:35:39.887Z,0.5321
2023-04-11T03:36:41.491Z,0.5309
2023-04-11T03:37:43.076Z,0.5294
2023-04-11T03:38:44.699Z,0.5289
2023-04-11T03:39:46.477Z,0.5273
2023-04-11T03:40:48.070Z,0.5278
2023-04-11T03:41:49.738Z,0.5282
2023-04-11T03:42:51.368Z,0.5277
2023-04-11T03:43:53.013Z,0.5278
2023-04-11T03:44:54.740Z,0.5269
2023-04-11T03:45:56.380Z,0.5263
2023-04-11T03:46:58.067Z,0.5281
2023-04-11T03:47:59.660Z,0.5280
2023-04-11T03:49:01.270Z,0.5278
2023-04-11T03:50:03.291Z,0.5281
2023-04-11T03:51:04.602Z,0.5268
2023-04-11T03:52:06.216Z,0.5244
2023-04-11T03:53:07.854Z,0.5243
2023-04-11T03:54:09.514Z,0.5255
2023-04-11T03:55:11.186Z,0.5286
2023-04-11T03:56:12.822Z,0.5292
2023-04-11T03:57:14.587Z,0.5292
2023-04-11T03:58:16.168Z,0.5287
2023-04-11T03:59:17.816Z,0.5263
2023-04-11T04:00:20.139Z,0.5243
2023-04-11T04:01:21.141Z,0.5237
2023-04-11T04:02:22.957Z,0.5226
2023-04-11T04:03:24.680Z,0.5228
2023-04-11T04:04:26.262Z,0.5230
2023-04-11T04:05:27.752Z,0.5230
2023-04-11T04:06:29.370Z,0.5227
2023-04-11T04:07:31.077Z,0.5223
2023-04-11T04:08:32.690Z,0.5223
2023-04-11T04:09:34.431Z,0.5224
2023-04-11T04:10:35.973Z,0.5223
2023-04-11T04:11:37.665Z,0.5231
2023-04-11T04:12:39.362Z,0.5220
2023-04-11T04:13:40.979Z,0.5215
2023-04-11T04:14:42.662Z,0.5215
2023-04-11T04:15:44.300Z,0.5206
2023-04-11T04:16:46.060Z,0.5203
2023-04-11T04:17:47.618Z,0.5199
2023-04-11T04:18:49.249Z,0.5201
2023-04-11T04:19:50.903Z,0.5209
2023-04-11T04:20:52.533Z,0.5202
2023-04-11T04:21:54.210Z,0.5195
2023-04-11T04:22:55.830Z,0.5206
2023-04-11T04:23:57.622Z,0.5201
2023-04-11T04:24:59.445Z,0.5194
2023-04-11T04:26:00.831Z,0.5190
2023-04-11T04:27:02.528Z,0.5195
2023-04-11T04:28:04.081Z,0.5187
2023-04-11T04:29:05.756Z,0.5186
2023-04-11T04:30:07.462Z,0.5186
2023-04-11T04:31:09.078Z,0.5186
2023-04-11T04:32:10.883Z,0.5186
2023-04-11T04:33:12.535Z,0.5189
2023-04-11T04:34:14.007Z,0.5181
2023-04-11T04:35:15.672Z,0.5177
2023-04-11T04:36:17.225Z,0.5168
2023-04-11T04:37:18.940Z,0.5159
2023-04-11T04:38:20.556Z,0.5145
2023-04-11T04:39:22.208Z,0.5134
2023-04-11T04:40:23.913Z,0.5133
2023-04-11T04:41:25.517Z,0.5127
2023-04-11T04:42:27.172Z,0.5113
2023-04-11T04:43:28.925Z,0.5092
2023-04-11T04:44:30.529Z,0.5093
2023-04-11T04:45:32.374Z,0.5092
2023-04-11T04:46:33.828Z,0.5098
2023-04-11T04:47:35.529Z,0.5089
2023-04-11T04:48:37.124Z,0.5098
2023-04-11T04:49:38.762Z,0.5098
2023-04-11T04:50:40.474Z,0.5098
2023-04-11T04:51:42.072Z,0.5098
2023-04-11T04:52:43.666Z,0.5098
2023-04-11T04:53:45.430Z,0.5104
2023-04-11T04:54:47.078Z,0.5109
2023-04-11T04:55:48.736Z,0.5106
2023-04-11T04:56:50.329Z,0.5114
2023-04-11T04:57:52.051Z,0.5101
2023-04-11T04:58:53.575Z,0.5097
2023-04-11T04:59:55.289Z,0.5093
2023-04-11T05:00:56.952Z,0.5083
2023-04-11T05:01:58.639Z,0.5080
2023-04-11T05:03:00.398Z,0.5080
2023-04-11T05:04:02.489Z,0.5082
2023-04-11T05:05:03.623Z,0.5084
2023-04-11T05:06:05.257Z,0.5084
2023-04-11T05:07:06.873Z,0.5084
2023-04-11T05:08:08.506Z,0.5084
2023-04-11T05:09:10.153Z,0.5084
2023-04-11T05:10:11.832Z,0.5084
2023-04-11T05:11:13.798Z,0.5084
2023-04-11T05:12:15.064Z,0.5083
2023-04-11T05:13:16.704Z,0.5081
2023-04-11T05:14:18.388Z,0.5080
2023-04-11T05:15:20.416Z,0.5076
2023-04-11T05:16:21.817Z,0.5095
2023-04-11T05:17:25.182Z,0.5097
2023-04-11T05:18:25.046Z,0.5095
2023-04-11T05:19:26.681Z,0.5103
2023-04-11T05:20:29.250Z,0.5103
2023-04-11T05:21:30.835Z,0.5094
2023-04-11T05:22:31.625Z,0.5091
2023-04-11T05:23:33.372Z,0.5084
2023-04-11T05:24:34.987Z,0.5082
2023-04-11T05:25:36.754Z,0.5081
2023-04-11T05:26:38.966Z,0.5079
2023-04-11T05:27:39.994Z,0.5079
2023-04-11T05:28:41.782Z,0.5080
2023-04-11T05:29:43.345Z,0.5075
2023-04-11T05:30:44.968Z,0.5081
2023-04-11T05:31:46.924Z,0.5085
2023-04-11T05:32:48.345Z,0.5086
2023-04-11T05:33:51.017Z,0.5082
2023-04-11T05:34:51.635Z,0.5082
2023-04-11T05:35:53.324Z,0.5082
2023-04-11T05:36:54.875Z,0.5082
2023-04-11T05:37:56.742Z,0.5079
2023-04-11T05:38:58.260Z,0.5073
2023-04-11T05:39:59.820Z,0.5072
2023-04-11T05:41:01.453Z,0.5065
2023-04-11T05:42:03.151Z,0.5063
2023-04-11T05:43:04.999Z,0.5057
2023-04-11T05:44:06.390Z,0.5057
2023-04-11T05:45:08.089Z,0.5057
2023-04-11T05:46:09.740Z,0.5056
2023-04-11T05:47:11.595Z,0.5040
2023-04-11T05:48:14.227Z,0.5040
2023-04-11T05:49:14.788Z,0.5040
2023-04-11T05:50:16.483Z,0.5040
2023-04-11T05:51:18.194Z,0.5040
2023-04-11T05:52:19.930Z,0.5040
2023-04-11T05:53:21.376Z,0.5040
2023-04-11T05:54:23.044Z,0.5035
2023-04-11T05:55:24.719Z,0.5032
2023-04-11T05:56:26.352Z,0.5032
2023-04-11T05:57:28.337Z,0.5034
2023-04-11T05:58:29.673Z,0.5036
2023-04-11T05:59:31.364Z,0.5025
2023-04-11T06:00:32.958Z,0.5019
2023-04-11T06:01:34.520Z,0.5012
2023-04-11T06:02:36.295Z,0.5011
2023-04-11T06:03:37.912Z,0.5011
2023-04-11T06:04:40.117Z,0.5011
2023-04-11T06:05:41.133Z,0.5020
2023-04-11T06:06:42.752Z,0.5021
2023-04-11T06:07:44.443Z,0.5021
2023-04-11T06:08:46.159Z,0.5020
2023-04-11T06:09:47.834Z,0.5002
2023-04-11T06:10:49.502Z,0.4993
2023-04-11T06:11:51.124Z,0.4983
2023-04-11T06:12:52.780Z,0.4978
2023-04-11T06:13:54.545Z,0.4975
2023-04-11T06:14:56.019Z,0.4966
2023-04-11T06:15:57.873Z,0.4960
2023-04-11T06:16:59.391Z,0.4961
2023-04-11T06:18:01.196Z,0.4955
2023-04-11T06:19:02.649Z,0.4953
2023-04-11T06:20:05.919Z,0.4953
2023-04-11T06:21:06.125Z,0.4945
2023-04-11T06:22:07.758Z,0.4937
2023-04-11T06:23:09.968Z,0.4934
2023-04-11T06:24:10.915Z,0.4930
2023-04-11T06:25:12.602Z,0.4932
2023-04-11T06:26:14.234Z,0.4936
2023-04-11T06:27:16.844Z,0.4927
2023-04-11T06:28:17.642Z,0.4929
2023-04-11T06:29:19.945Z,0.4932
2023-04-11T06:30:21.051Z,0.4932
2023-04-11T06:31:23.569Z,0.4932
2023-04-11T06:32:24.633Z,0.4926
2023-04-11T06:33:25.755Z,0.4924
2023-04-11T06:34:27.677Z,0.4924
2023-04-11T06:35:29.166Z,0.4920
2023-04-11T06:36:30.787Z,0.4920
2023-04-11T06:37:32.512Z,0.4920
2023-04-11T06:38:34.586Z,0.4931
2023-04-11T06:39:35.825Z,0.4937
2023-04-11T06:40:37.452Z,0.4931
2023-04-11T06:41:39.026Z,0.4931
2023-04-11T06:42:41.050Z,0.4931
2023-04-11T06:43:42.539Z,0.4931
2023-04-11T06:44:44.373Z,0.4931
2023-04-11T06:45:45.652Z,0.4934
2023-04-11T06:46:47.488Z,0.4932
2023-04-11T06:47:49.075Z,0.4936
2023-04-11T06:48:50.634Z,0.4942
2023-04-11T06:49:52.240Z,0.4951
2023-04-11T06:50:55.046Z,0.4951
2023-04-11T06:51:55.548Z,0.4949
2023-04-11T06:52:57.299Z,0.4938
2023-04-11T06:53:58.888Z,0.4937
2023-04-11T06:55:00.564Z,0.4938
2023-04-11T06:56:02.164Z,0.4935
2023-04-11T06:57:03.881Z,0.4947
2023-04-11T06:58:05.355Z,0.4944
2023-04-11T06:59:07.301Z,0.4946
2023-04-11T07:00:08.727Z,0.4950
2023-04-11T07:01:10.373Z,0.4944
2023-04-11T07:02:12.112Z,0.4939
2023-04-11T07:03:13.797Z,0.4940
2023-04-11T07:04:15.516Z,0.4948
2023-04-11T07:05:16.981Z,0.4958
2023-04-11T07:06:18.696Z,0.4961
2023-04-11T07:07:20.318Z,0.4961
2023-04-11T07:08:21.894Z,0.4961
2023-04-11T07:09:23.592Z,0.4961
2023-04-11T07:10:25.258Z,0.4962
2023-04-11T07:11:26.950Z,0.4964
2023-04-11T07:12:28.458Z,0.4964
2023-04-11T07:13:30.904Z,0.4964
2023-04-11T07:14:31.904Z,0.4961
2023-04-11T07:15:33.463Z,0.4957
2023-04-11T07:16:35.170Z,0.4957
2023-04-11T07:17:36.967Z,0.4957
2023-04-11T07:18:38.400Z,0.4957
2023-04-11T07:19:40.103Z,0.4953
2023-04-11T07:20:41.725Z,0.4949
2023-04-11T07:21:43.405Z,0.4949
2023-04-11T07:22:45.032Z,0.4946
2023-04-11T07:23:46.661Z,0.4945
2023-04-11T07:24:48.340Z,0.4949
2023-04-11T07:25:49.953Z,0.4950
2023-04-11T07:26:51.798Z,0.4950
2023-04-11T07:27:53.334Z,0.4959
2023-04-11T07:28:54.972Z,0.4959
2023-04-11T07:29:56.830Z,0.4959
2023-04-11T07:30:58.244Z,0.4959
2023-04-11T07:31:59.863Z,0.4959
2023-04-11T07:33:01.505Z,0.4959
2023-04-11T07:34:03.135Z,0.4959
2023-04-11T07:35:05.050Z,0.4959
2023-04-11T07:36:06.499Z,0.4961
2023-04-11T07:37:08.081Z,0.4962
2023-04-11T07:38:09.790Z,0.4953
2023-04-11T07:39:11.460Z,0.4947
2023-04-11T07:40:13.522Z,0.4948
2023-04-11T07:41:14.694Z,0.4961
2023-04-11T07:42:16.311Z,0.4959
2023-04-11T07:43:18.116Z,0.4949
2023-04-11T07:44:19.825Z,0.4936
2023-04-11T07:45:21.365Z,0.4938
2023-04-11T07:46:22.949Z,0.4941
2023-04-11T07:47:24.603Z,0.4944
2023-04-11T07:48:26.344Z,0.4945
2023-04-11T07:49:27.948Z,0.4953
2023-04-11T07:50:29.768Z,0.4953
2023-04-11T07:51:31.154Z,0.4953
2023-04-11T07:52:32.911Z,0.4953
2023-04-11T07:53:34.504Z,0.4953
2023-04-11T07:54:36.101Z,0.4953
2023-04-11T07:55:37.837Z,0.4953
2023-04-11T07:56:40.405Z,0.4953
2023-04-11T07:57:41.087Z,0.4953
2023-04-11T07:58:42.772Z,0.4950
2023-04-11T07:59:44.572Z,0.4945
2023-04-11T08:00:45.991Z,0.4945
2023-04-11T08:01:47.775Z,0.4945
2023-04-11T08:02:50.356Z,0.4945
2023-04-11T08:03:51.076Z,0.4945
2023-04-11T08:04:52.754Z,0.4945
2023-04-11T08:05:54.239Z,0.4943
2023-04-11T08:06:55.896Z,0.4937
2023-04-11T08:07:57.568Z,0.4937
2023-04-11T08:08:59.285Z,0.4937
2023-04-11T08:10:00.848Z,0.4937
2023-04-11T08:11:02.506Z,0.4937
2023-04-11T08:12:04.200Z,0.4941
2023-04-11T08:13:05.856Z,0.4945
2023-04-11T08:14:07.416Z,0.4936
2023-04-11T08:15:09.167Z,0.4934
2023-04-11T08:16:10.837Z,0.4924
2023-04-11T08:17:25.143Z,0.4918
2023-04-11T08:18:14.068Z,0.4918
2023-04-11T08:19:15.698Z,0.4918
2023-04-11T08:20:17.416Z,0.4918
2023-04-11T08:21:19.045Z,0.4914
2023-04-11T08:22:21.022Z,0.4911
2023-04-11T08:23:22.384Z,0.4911
2023-04-11T08:24:23.962Z,0.4911
2023-04-11T08:25:25.630Z,0.4911
2023-04-11T08:26:27.957Z,0.4911
2023-04-11T08:27:28.912Z,0.4919
2023-04-11T08:28:30.714Z,0.4919
2023-04-11T08:29:32.436Z,0.4919
2023-04-11T08:30:33.868Z,0.4919
2023-04-11T08:31:35.456Z,0.4919
2023-04-11T08:32:37.420Z,0.4919
2023-04-11T08:33:38.713Z,0.4919
2023-04-11T08:34:40.389Z,0.4919
2023-04-11T08:35:42.112Z,0.4919
2023-04-11T08:36:43.712Z,0.4919
2023-04-11T08:37:45.938Z,0.4919
2023-04-11T08:38:47.023Z,0.4919
2023-04-11T08:39:48.709Z,0.4919
2023-04-11T08:40:50.532Z,0.4919
2023-04-11T08:41:52.201Z,0.4915
2023-04-11T08:42:53.633Z,0.4912
2023-04-11T08:43:55.572Z,0.4911
2023-04-11T08:44:56.925Z,0.4911
2023-04-11T08:45:58.569Z,0.4911
2023-04-11T08:47:00.283Z,0.4911
2023-04-11T08:48:01.907Z,0.4913
2023-04-11T08:49:03.703Z,0.4919
2023-04-11T08:50:05.091Z,0.4919
2023-04-11T08:51:06.807Z,0.4912
2023-04-11T08:52:08.807Z,0.4912
2023-04-11T08:53:10.055Z,0.4912
2023-04-11T08:54:11.726Z,0.4912
2023-04-11T08:55:13.413Z,0.4912
2023-04-11T08:56:15.023Z,0.4912
2023-04-11T08:57:16.722Z,0.4912
2023-04-11T08:58:18.414Z,0.4912
2023-04-11T08:59:20.052Z,0.4912
2023-04-11T09:00:21.613Z,0.4912
2023-04-11T09:01:23.355Z,0.4912
2023-04-11T09:02:25.109Z,0.4912
2023-04-11T09:03:26.605Z,0.4912
2023-04-11T09:04:29.073Z,0.4912
2023-04-11T09:05:30.202Z,0.4912
2023-04-11T09:06:31.598Z,0.4912
2023-04-11T09:07:33.216Z,0.4912
2023-04-11T09:08:34.830Z,0.4912
2023-04-11T09:09:36.471Z,0.4912
2023-04-11T09:10:38.089Z,0.4912
2023-04-11T09:11:39.764Z,0.4912
2023-04-11T09:12:41.408Z,0.4908
2023-04-11T09:13:43.817Z,0.4897
2023-04-11T09:14:44.694Z,0.4896
2023-04-11T09:15:46.451Z,0.4896
2023-04-11T09:16:47.898Z,0.4896
2023-04-11T09:17:49.546Z,0.4896
2023-04-11T09:18:51.209Z,0.4898
2023-04-11T09:19:52.872Z,0.4902
2023-04-11T09:20:54.584Z,0.4902
2023-04-11T09:21:56.205Z,0.4902
2023-04-11T09:22:57.821Z,0.4907
2023-04-11T09:23:59.427Z,0.4907
2023-04-11T09:25:01.146Z,0.4907
2023-04-11T09:26:02.840Z,0.4911
2023-04-11T09:27:04.454Z,0.4925
2023-04-11T09:28:06.137Z,0.4927
2023-04-11T09:29:07.746Z,0.4923
2023-04-11T09:30:09.397Z,0.4923
2023-04-11T09:31:11.423Z,0.4923
2023-04-11T09:32:13.403Z,0.4919
2023-04-11T09:33:14.359Z,0.4915
2023-04-11T09:34:16.414Z,0.4915
2023-04-11T09:35:18.236Z,0.4915
2023-04-11T09:36:19.330Z,0.4916
2023-04-11T09:37:21.050Z,0.4924
2023-04-11T09:38:22.825Z,0.4924
2023-04-11T09:39:24.296Z,0.4925
2023-04-11T09:40:25.905Z,0.4933
2023-04-11T09:41:27.813Z,0.4933
2023-04-11T09:42:29.311Z,0.4940
2023-04-11T09:43:30.922Z,0.4934
2023-04-11T09:44:32.701Z,0.4934
2023-04-11T09:45:44.212Z,0.4934
2023-04-11T09:46:35.809Z,0.4936
2023-04-11T09:47:37.498Z,0.4937
2023-04-11T09:48:46.502Z,0.4936
2023-04-11T09:49:40.837Z,0.4929
2023-04-11T09:50:42.448Z,0.4929
2023-04-11T09:51:44.025Z,0.4929
2023-04-11T09:52:45.689Z,0.4929
2023-04-11T09:53:47.397Z,0.4916
2023-04-11T09:54:48.980Z,0.4914
2023-04-11T09:55:50.662Z,0.4914
2023-04-11T09:56:52.348Z,0.4918
2023-04-11T09:57:54.918Z,0.4919
2023-04-11T09:58:55.872Z,0.4925
2023-04-11T09:59:58.789Z,0.4927
2023-04-11T10:00:58.814Z,0.4921
2023-04-11T10:02:00.625Z,0.4926
2023-04-11T10:03:02.613Z,0.4933
2023-04-11T10:04:04.589Z,0.4933
2023-04-11T10:05:05.609Z,0.4933
2023-04-11T10:06:07.215Z,0.4936
2023-04-11T10:07:08.842Z,0.4933
2023-04-11T10:08:10.515Z,0.4933
2023-04-11T10:09:12.182Z,0.4931
2023-04-11T10:10:13.783Z,0.4925
2023-04-11T10:11:15.438Z,0.4925
2023-04-11T10:12:17.149Z,0.4934
2023-04-11T10:13:18.840Z,0.4934
2023-04-11T10:14:20.532Z,0.4929
2023-04-11T10:15:21.981Z,0.4925
2023-04-11T10:16:23.821Z,0.4922
2023-04-11T10:17:25.411Z,0.4922
2023-04-11T10:18:27.004Z,0.4922
2023-04-11T10:19:28.686Z,0.4922
2023-04-11T10:20:30.319Z,0.4922
2023-04-11T10:21:32.026Z,0.4922
2023-04-11T10:22:33.576Z,0.4919
2023-04-11T10:23:35.272Z,0.4920
2023-04-11T10:24:36.972Z,0.4920
2023-04-11T10:25:38.559Z,0.4920
2023-04-11T10:26:40.173Z,0.4913
2023-04-11T10:27:41.841Z,0.4912
2023-04-11T10:28:43.726Z,0.4912
2023-04-11T10:29:45.282Z,0.4912
2023-04-11T10:30:46.866Z,0.4908
2023-04-11T10:31:48.634Z,0.4904
2023-04-11T10:32:50.191Z,0.4904
2023-04-11T10:33:51.989Z,0.4904
2023-04-11T10:34:53.556Z,0.4908
2023-04-11T10:35:55.171Z,0.4904
2023-04-11T10:36:56.764Z,0.4900
2023-04-11T10:37:58.990Z,0.4892
2023-04-11T10:39:00.090Z,0.4892
2023-04-11T10:40:01.816Z,0.4892
2023-04-11T10:41:03.470Z,0.4892
2023-04-11T10:42:05.032Z,0.4892
2023-04-11T10:43:07.499Z,0.4892
2023-04-11T10:44:08.362Z,0.4892
2023-04-11T10:45:10.144Z,0.4890
2023-04-11T10:46:11.590Z,0.4885
2023-04-11T10:47:13.593Z,0.4885
2023-04-11T10:48:14.911Z,0.4885
2023-04-11T10:49:16.578Z,0.4878
2023-04-11T10:50:18.655Z,0.4877
2023-04-11T10:51:19.891Z,0.4879
2023-04-11T10:52:21.570Z,0.4880
2023-04-11T10:53:23.217Z,0.4895
2023-04-11T10:54:24.883Z,0.4900
2023-04-11T10:55:27.086Z,0.4900
2023-04-11T10:56:28.184Z,0.4900
2023-04-11T10:57:29.841Z,0.4905
2023-04-11T10:58:31.475Z,0.4909
2023-04-11T10:59:33.097Z,0.4909
2023-04-11T11:00:35.198Z,0.4909
2023-04-11T11:01:42.966Z,0.4909
2023-04-11T11:02:38.425Z,0.4906
2023-04-11T11:03:39.926Z,0.4902
2023-04-11T11:04:41.417Z,0.4902
2023-04-11T11:05:42.997Z,0.4902
2023-04-11T11:06:51.103Z,0.4902
2023-04-11T11:07:46.251Z,0.4902
2023-04-11T11:08:48.397Z,0.4902
2023-04-11T11:09:49.514Z,0.4904
2023-04-11T11:10:51.274Z,0.4912
2023-04-11T11:11:52.818Z,0.4912
2023-04-11T11:12:54.549Z,0.4912
2023-04-11T11:13:56.490Z,0.4912
2023-04-11T11:14:57.814Z,0.4912
2023-04-11T11:15:59.418Z,0.4906
2023-04-11T11:17:01.222Z,0.4902
2023-04-11T11:18:02.756Z,0.4896
2023-04-11T11:19:04.872Z,0.4902
2023-04-11T11:20:06.039Z,0.4905
2023-04-11T11:21:14.170Z,0.4905
2023-04-11T11:22:09.307Z,0.4905
2023-04-11T11:23:14.125Z,0.4905
2023-04-11T11:24:17.585Z,0.4905
2023-04-11T11:25:19.189Z,0.4907
2023-04-11T11:26:20.806Z,0.4910
2023-04-11T11:27:22.413Z,0.4909
2023-04-11T11:28:24.169Z,0.4905
2023-04-11T11:29:25.798Z,0.4908
2023-04-11T11:30:27.357Z,0.4910
2023-04-11T11:31:30.033Z,0.4910
2023-04-11T11:32:30.641Z,0.4909
2023-04-11T11:33:32.396Z,0.4902
2023-04-11T11:34:34.056Z,0.4902
2023-04-11T11:35:35.688Z,0.4905
2023-04-11T11:36:37.249Z,0.4911
2023-04-11T11:37:38.896Z,0.4911
2023-04-11T11:38:41.390Z,0.4911
2023-04-11T11:39:42.238Z,0.4911
2023-04-11T11:40:43.807Z,0.4911
2023-04-11T11:41:46.560Z,0.4916
2023-04-11T11:42:47.140Z,0.4913
2023-04-11T11:43:48.736Z,0.4913
2023-04-11T11:44:50.550Z,0.4913
2023-04-11T11:45:52.138Z,0.4913
2023-04-11T11:46:53.742Z,0.4913
2023-04-11T11:47:55.886Z,0.4913
2023-04-11T11:48:57.288Z,0.4916
2023-04-11T11:49:58.668Z,0.4916
2023-04-11T11:51:01.008Z,0.4915
2023-04-11T11:52:02.099Z,0.4909
2023-04-11T11:53:03.702Z,0.4906
2023-04-11T11:54:05.351Z,0.4908
2023-04-11T11:55:10.860Z,0.4915
2023-04-11T11:56:08.713Z,0.4915
2023-04-11T11:57:10.680Z,0.4915
2023-04-11T11:58:12.153Z,0.4915
2023-04-11T11:59:13.672Z,0.4915
2023-04-11T12:00:15.290Z,0.4915
2023-04-11T12:01:17.196Z,0.4908
2023-04-11T12:02:18.691Z,0.4907
2023-04-11T12:03:20.608Z,0.4907
2023-04-11T12:04:22.189Z,0.4906
2023-04-11T12:05:23.864Z,0.4913
2023-04-11T12:06:25.419Z,0.4919
2023-04-11T12:07:27.010Z,0.4922
2023-04-11T12:08:28.553Z,0.4919
2023-04-11T12:09:30.208Z,0.4926
2023-04-11T12:10:31.894Z,0.4904
2023-04-11T12:11:34.013Z,0.4896
2023-04-11T12:12:35.180Z,0.4906
2023-04-11T12:13:36.856Z,0.4910
2023-04-11T12:14:38.417Z,0.4906
2023-04-11T12:15:40.100Z,0.4906
2023-04-11T12:16:41.798Z,0.4916
2023-04-11T12:17:43.435Z,0.4919
2023-04-11T12:18:45.131Z,0.4911
2023-04-11T12:19:46.776Z,0.4907
2023-04-11T12:20:48.364Z,0.4907
2023-04-11T12:21:50.030Z,0.4907
2023-04-11T12:22:53.674Z,0.4904
2023-04-11T12:23:53.540Z,0.4899
2023-04-11T12:24:54.840Z,0.4902
2023-04-11T12:25:56.668Z,0.4904
2023-04-11T12:27:06.854Z,0.4908
2023-04-11T12:27:59.918Z,0.4908
2023-04-11T12:29:01.552Z,0.4908
2023-04-11T12:30:04.038Z,0.4908
2023-04-11T12:31:04.889Z,0.4906
2023-04-11T12:32:06.432Z,0.4901
2023-04-11T12:33:08.215Z,0.4901
2023-04-11T12:34:10.258Z,0.4901
2023-04-11T12:35:11.506Z,0.4896
2023-04-11T12:36:13.177Z,0.4886
2023-04-11T12:37:14.779Z,0.4886
2023-04-11T12:38:17.929Z,0.4894
2023-04-11T12:39:18.064Z,0.4895
2023-04-11T12:40:19.784Z,0.4893
2023-04-11T12:41:32.306Z,0.4899
2023-04-11T12:42:26.564Z,0.4907
2023-04-11T12:43:24.751Z,0.4913
2023-04-11T12:44:26.557Z,0.4934
2023-04-11T12:45:28.118Z,0.4941
2023-04-11T12:46:29.691Z,0.4946
2023-04-11T12:47:31.272Z,0.4948
2023-04-11T12:48:32.933Z,0.4952
2023-04-11T12:49:34.564Z,0.4952